createdAt,value
2023-01-27T00:06:43.206Z,2.14
2023-01-27T00:09:09.464Z,2.08
2023-01-27T00:11:54.502Z,2.05
2023-01-27T00:14:20.753Z,2.05
2023-01-27T00:16:47.008Z,2.02
2023-01-27T00:19:13.265Z,2.02
2023-01-27T00:21:58.083Z,2.01
2023-01-27T00:24:36.388Z,1.99
2023-01-27T00:27:03.677Z,1.97
2023-01-27T00:29:30.006Z,1.97
2023-01-27T00:32:14.996Z,1.95
2023-01-27T00:34:41.774Z,1.95
2023-01-27T00:37:08.143Z,1.89
2023-01-27T00:39:34.613Z,1.88
2023-01-27T00:45:44.697Z,1.89
2023-01-27T00:48:26.229Z,1.89
2023-01-27T00:50:55.674Z,1.85
2023-01-27T01:33:50.658Z,1.85
2023-01-27T01:36:30.520Z,1.82
2023-01-27T01:39:02.833Z,1.84
2023-01-27T01:41:41.483Z,1.81
2023-01-27T01:47:41.904Z,1.86
2023-01-27T01:54:10.414Z,1.83
2023-01-27T02:03:47.358Z,1.86
2023-01-27T02:22:20.087Z,1.83
2023-01-27T02:24:49.863Z,1.83
2023-01-27T02:27:16.229Z,1.80
2023-01-27T02:29:42.469Z,1.79
2023-01-27T02:32:08.732Z,1.78
2023-01-27T02:34:37.174Z,1.78
2023-01-27T02:37:05.867Z,1.80
2023-01-27T02:39:33.964Z,1.79
2023-01-27T02:42:01.093Z,1.80
2023-01-27T02:44:27.350Z,1.81
2023-01-27T02:46:53.656Z,1.79
2023-01-27T02:49:19.922Z,1.77
2023-01-27T02:51:46.225Z,1.79
2023-01-27T02:54:12.685Z,1.77
2023-01-27T02:56:39.086Z,1.75
2023-01-27T02:59:05.331Z,1.76
2023-01-27T03:01:32.666Z,1.75
2023-01-27T03:03:59.297Z,1.75
2023-01-27T03:06:25.639Z,1.74
2023-01-27T03:08:51.887Z,1.74
2023-01-27T03:11:38.130Z,1.73
2023-01-27T03:14:04.510Z,1.76
2023-01-27T03:16:49.461Z,1.75
2023-01-27T03:19:15.805Z,1.77
2023-01-27T03:21:42.071Z,1.76
2023-01-27T03:24:08.381Z,1.78
2023-01-27T03:26:34.675Z,1.79
2023-01-27T03:29:19.508Z,1.81
2023-01-27T03:31:45.863Z,1.85
2023-01-27T03:34:12.177Z,1.87
2023-01-27T03:36:57.226Z,1.87
2023-01-27T03:39:42.026Z,1.88
2023-01-27T03:42:26.900Z,1.87
2023-01-27T03:45:11.909Z,1.88
2023-01-27T03:47:38.322Z,1.88
2023-01-27T03:50:11.036Z,1.86
2023-01-27T03:52:37.649Z,1.82
2023-01-27T03:55:04.268Z,1.81
2023-01-27T03:57:30.514Z,1.79
2023-01-27T03:59:57.663Z,1.78
2023-01-27T04:02:42.713Z,1.78
2023-01-27T04:05:28.033Z,1.78
2023-01-27T04:07:54.299Z,1.78
2023-01-27T04:10:20.565Z,1.77
2023-01-27T04:12:48.165Z,1.76
2023-01-27T04:15:14.795Z,1.76
2023-01-27T04:17:42.622Z,1.76
2023-01-27T04:20:09.417Z,1.76
2023-01-27T04:22:35.839Z,1.76
2023-01-27T04:25:02.086Z,1.75
2023-01-27T04:27:28.339Z,1.74
2023-01-27T04:29:54.580Z,1.73
2023-01-27T04:32:20.876Z,1.68
2023-01-27T04:34:47.146Z,1.60
2023-01-27T04:37:13.448Z,1.49
2023-01-27T04:39:41.284Z,1.39
2023-01-27T04:42:08.405Z,1.33
2023-01-27T04:44:34.669Z,1.24
2023-01-27T04:47:00.940Z,1.19
2023-01-27T04:49:27.436Z,1.12
2023-01-27T04:51:54.021Z,1.10
2023-01-27T04:54:20.357Z,1.03
2023-01-27T04:56:58.053Z,1.08
2023-01-27T04:59:24.381Z,1.18
2023-01-27T05:01:51.964Z,1.26
2023-01-27T05:04:18.335Z,1.34
2023-01-27T05:06:44.591Z,1.38
2023-01-27T05:09:10.944Z,1.43
2023-01-27T05:11:37.211Z,1.47
2023-01-27T05:14:03.513Z,1.50
2023-01-27T05:16:29.837Z,1.53
2023-01-27T05:18:56.324Z,1.55
2023-01-27T05:21:24.122Z,1.57
2023-01-27T05:23:50.924Z,1.58
2023-01-27T05:26:18.537Z,1.61
2023-01-27T05:28:45.721Z,1.63
2023-01-27T05:31:13.338Z,1.62
2023-01-27T05:33:40.493Z,1.64
2023-01-27T05:36:07.449Z,1.64
2023-01-27T05:38:33.755Z,1.64
2023-01-27T05:41:01.985Z,1.64
2023-01-27T05:43:29.090Z,1.62
2023-01-27T05:46:01.133Z,1.65
2023-01-27T05:48:27.400Z,1.66
2023-01-27T05:50:54.600Z,1.65
2023-01-27T05:53:21.061Z,1.66
2023-01-27T05:55:47.307Z,1.63
2023-01-27T05:58:13.549Z,1.64
2023-01-27T06:00:39.888Z,1.62
2023-01-27T06:03:06.295Z,1.63
2023-01-27T06:05:32.563Z,1.65
2023-01-27T06:07:58.838Z,1.61
2023-01-27T06:10:25.166Z,1.60
2023-01-27T06:12:51.415Z,1.59
2023-01-27T06:15:17.668Z,1.57
2023-01-27T06:17:43.914Z,1.56
2023-01-27T06:20:10.629Z,1.56
2023-01-27T06:22:36.914Z,1.52
2023-01-27T06:25:03.195Z,1.53
2023-01-27T06:27:29.473Z,1.54
2023-01-27T06:29:55.752Z,1.53
2023-01-27T06:32:22.070Z,1.51
2023-01-27T06:34:48.339Z,1.51
2023-01-27T06:37:14.639Z,1.48
2023-01-27T06:39:40.929Z,1.48
2023-01-27T06:42:09.341Z,1.48
2023-01-27T06:44:35.606Z,1.46
2023-01-27T06:47:01.879Z,1.48
2023-01-27T06:49:28.141Z,1.48
2023-01-27T06:51:54.410Z,1.47
2023-01-27T06:54:21.017Z,1.42
2023-01-27T06:56:47.277Z,1.42
2023-01-27T06:59:13.581Z,1.41
2023-01-27T07:01:39.883Z,1.39
2023-01-27T07:04:06.148Z,1.39
2023-01-27T07:06:33.017Z,1.37
2023-01-27T07:08:59.279Z,1.37
2023-01-27T07:11:25.597Z,1.38
2023-01-27T07:13:51.833Z,1.37
2023-01-27T07:16:18.157Z,1.40
2023-01-27T07:18:44.409Z,1.40
2023-01-27T07:21:10.947Z,1.38
2023-01-27T07:23:37.205Z,1.38
2023-01-27T07:26:09.860Z,1.37
2023-01-27T07:28:42.125Z,1.39
2023-01-27T07:31:08.535Z,1.38
2023-01-27T07:33:34.875Z,1.41
2023-01-27T07:36:01.154Z,1.38
2023-01-27T07:38:27.444Z,1.37
2023-01-27T07:40:53.729Z,1.35
2023-01-27T07:43:20.113Z,1.32
2023-01-27T07:45:48.855Z,1.31
2023-01-27T07:48:16.388Z,1.31
2023-01-27T07:50:42.668Z,1.29
2023-01-27T07:53:10.057Z,1.25
2023-01-27T07:55:36.394Z,1.21
2023-01-27T07:58:02.776Z,1.23
2023-01-27T08:00:29.345Z,1.23
2023-01-27T08:02:56.550Z,1.22
2023-01-27T08:05:23.141Z,1.27
2023-01-27T08:07:50.341Z,1.26
2023-01-27T08:10:18.695Z,1.27
2023-01-27T08:12:45.207Z,1.31
2023-01-27T08:15:11.563Z,1.32
2023-01-27T08:17:37.849Z,1.34
2023-01-27T08:20:04.566Z,1.35
2023-01-27T08:22:31.107Z,1.38
2023-01-27T08:24:57.436Z,1.43
2023-01-27T08:27:23.702Z,1.45
2023-01-27T08:29:49.967Z,1.44
2023-01-27T08:32:16.242Z,1.48
2023-01-27T08:34:42.530Z,1.50
2023-01-27T08:37:08.929Z,1.50
2023-01-27T08:39:35.216Z,1.52
2023-01-27T08:42:01.512Z,1.50
2023-01-27T08:44:28.924Z,1.49
2023-01-27T08:46:55.177Z,1.50
2023-01-27T08:49:21.468Z,1.51
2023-01-27T08:51:47.823Z,1.54
2023-01-27T08:54:14.090Z,1.50
2023-01-27T08:56:40.371Z,1.53
2023-01-27T08:59:06.918Z,1.52
2023-01-27T09:01:33.253Z,1.54
2023-01-27T09:03:59.520Z,1.46
2023-01-27T09:06:25.827Z,1.45
2023-01-27T09:09:11.170Z,1.48
2023-01-27T09:11:42.750Z,1.54
2023-01-27T09:14:09.418Z,1.59
2023-01-27T09:16:35.841Z,1.57
2023-01-27T09:19:02.316Z,1.58
2023-01-27T09:21:28.633Z,1.59
2023-01-27T09:23:54.937Z,1.67
2023-01-27T09:26:21.244Z,1.67
2023-01-27T09:28:47.503Z,1.68
2023-01-27T09:31:13.896Z,1.73
2023-01-27T09:33:40.211Z,1.76
2023-01-27T09:36:06.752Z,1.75
2023-01-27T09:38:34.549Z,1.75
2023-01-27T09:41:19.599Z,1.66
2023-01-27T09:43:51.964Z,1.64
2023-01-27T09:46:36.941Z,1.64
2023-01-27T09:49:05.945Z,1.66
2023-01-27T09:51:35.190Z,1.65
2023-01-27T09:54:04.554Z,1.71
2023-01-27T09:56:51.084Z,1.67
2023-01-27T09:59:26.495Z,1.66
2023-01-27T10:02:11.634Z,1.64
2023-01-27T10:04:56.894Z,1.73
2023-01-27T10:07:41.816Z,1.79
2023-01-27T10:10:08.105Z,1.72
2023-01-27T10:12:38.785Z,1.69
2023-01-27T10:15:10.701Z,1.87
2023-01-27T10:17:55.890Z,1.84
2023-01-27T10:20:38.556Z,1.88
2023-01-27T10:23:10.999Z,1.95
2023-01-27T10:25:45.799Z,1.81
2023-01-27T10:28:13.535Z,1.88
2023-01-27T10:30:45.065Z,1.94
2023-01-27T10:33:14.420Z,1.73
2023-01-27T10:35:47.822Z,1.71
2023-01-27T10:38:17.005Z,1.62
2023-01-27T10:41:02.022Z,1.59
2023-01-27T10:43:40.620Z,1.62
2023-01-27T10:46:16.446Z,1.67
2023-01-27T10:48:57.099Z,1.59
2023-01-27T10:51:26.433Z,1.54
2023-01-27T10:53:57.507Z,1.55
2023-01-27T10:56:32.830Z,1.61
2023-01-27T10:59:02.966Z,1.61
2023-01-27T11:01:34.650Z,1.61
2023-01-27T11:04:03.889Z,1.67
2023-01-27T11:06:38.428Z,1.69
2023-01-27T11:09:08.359Z,1.74
2023-01-27T11:11:44.622Z,1.82
2023-01-27T11:14:10.860Z,1.88
2023-01-27T11:16:38.781Z,2.01
2023-01-27T11:19:18.613Z,2.15
2023-01-27T11:21:48.773Z,2.27
2023-01-27T11:24:22.523Z,2.21
2023-01-27T11:26:54.015Z,2.16
2023-01-27T11:29:23.470Z,2.03
2023-01-27T11:32:16.134Z,2.08
2023-01-27T11:34:54.795Z,2.04
2023-01-27T11:37:22.530Z,2.08
2023-01-27T11:39:48.784Z,2.19
2023-01-27T11:42:15.822Z,2.23
2023-01-27T11:44:43.453Z,2.36
2023-01-27T11:47:18.188Z,2.55
2023-01-27T11:49:46.352Z,2.46
2023-01-27T11:52:14.785Z,2.50
2023-01-27T11:54:50.702Z,2.63
2023-01-27T11:57:22.147Z,2.57
2023-01-27T11:59:50.729Z,2.47
2023-01-27T12:02:16.972Z,2.39
2023-01-27T12:05:01.716Z,2.38
2023-01-27T12:07:36.914Z,2.32
2023-01-27T12:10:03.744Z,2.20
2023-01-27T12:12:30.045Z,2.13
2023-01-27T12:14:59.613Z,2.15
2023-01-27T12:17:25.897Z,2.12
2023-01-27T12:19:54.663Z,2.26
2023-01-27T12:22:28.917Z,2.31
2023-01-27T12:25:00.348Z,2.29
2023-01-27T12:27:28.638Z,2.24
2023-01-27T12:30:06.363Z,2.23
2023-01-27T12:32:40.630Z,2.24
2023-01-27T12:35:18.048Z,2.21
2023-01-27T12:37:44.398Z,2.11
2023-01-27T12:40:18.673Z,1.99
2023-01-27T12:42:50.122Z,1.89
2023-01-27T12:45:19.529Z,1.70
2023-01-27T12:48:04.278Z,1.73
2023-01-27T12:50:34.855Z,1.66
2023-01-27T12:53:14.804Z,1.61
2023-01-27T12:55:56.501Z,1.53
2023-01-27T12:58:22.792Z,1.45
2023-01-27T13:00:49.149Z,1.38
2023-01-27T13:03:15.733Z,1.63
2023-01-27T13:05:43.246Z,2.67
2023-01-27T13:08:18.064Z,3.45
2023-01-27T13:10:51.899Z,4.00
2023-01-27T13:13:20.270Z,4.57
2023-01-27T13:15:58.141Z,4.50
2023-01-27T13:18:24.807Z,4.83
2023-01-27T13:20:55.377Z,4.84
2023-01-27T13:23:30.694Z,5.00
2023-01-27T13:26:09.100Z,4.97
2023-01-27T13:28:51.120Z,5.42
2023-01-27T13:31:36.638Z,5.74
2023-01-27T13:34:22.311Z,5.29
2023-01-27T13:37:08.420Z,4.84
2023-01-27T13:39:40.619Z,4.32
2023-01-27T13:42:13.043Z,3.89
2023-01-27T13:44:42.366Z,3.90
2023-01-27T13:47:14.370Z,3.58
2023-01-27T13:50:00.566Z,3.27
2023-01-27T13:52:26.928Z,3.22
2023-01-27T13:54:53.375Z,3.24
2023-01-27T13:57:40.640Z,3.27
2023-01-27T14:00:10.563Z,3.11
2023-01-27T14:02:44.652Z,3.03
2023-01-27T14:05:20.708Z,2.57
2023-01-27T14:08:08.022Z,2.44
2023-01-27T14:10:37.311Z,2.24
2023-01-27T14:13:11.271Z,2.08
2023-01-27T14:15:42.775Z,1.90
2023-01-27T14:18:18.168Z,1.65
2023-01-27T14:21:02.790Z,1.42
2023-01-27T14:23:35.069Z,1.23
2023-01-27T14:26:20.249Z,1.12
2023-01-27T14:28:55.835Z,1.05
2023-01-27T14:31:24.797Z,0.93
2023-01-27T14:33:58.375Z,0.74
2023-01-27T14:36:34.543Z,0.62
2023-01-27T14:39:27.628Z,0.46
2023-01-27T14:42:16.141Z,0.39
2023-01-27T14:45:01.321Z,0.31
2023-01-27T14:47:38.276Z,0.26
2023-01-27T14:50:21.040Z,0.29
2023-01-27T14:52:53.370Z,0.29
2023-01-27T14:55:33.599Z,0.34
2023-01-27T14:58:05.938Z,0.28
2023-01-27T15:00:35.277Z,0.19
2023-01-27T15:03:20.513Z,0.17
2023-01-27T15:05:55.925Z,0.23
2023-01-27T15:08:28.314Z,0.26
2023-01-27T15:11:00.836Z,0.26
2023-01-27T15:13:30.188Z,0.27
2023-01-27T15:15:56.547Z,0.26
2023-01-27T15:18:25.617Z,0.24
2023-01-27T15:21:06.819Z,0.28
2023-01-27T15:23:42.289Z,0.33
2023-01-27T15:26:09.320Z,0.35
2023-01-27T15:28:38.390Z,0.33
2023-01-27T15:31:13.837Z,0.31
2023-01-27T15:33:58.801Z,0.27
2023-01-27T15:36:28.303Z,0.23
2023-01-27T15:38:58.753Z,0.20
2023-01-27T15:41:25.436Z,0.21
2023-01-27T15:44:21.179Z,0.23
2023-01-27T15:46:51.622Z,0.31
2023-01-27T15:49:20.999Z,0.30
2023-01-27T15:51:49.125Z,0.32
2023-01-27T15:54:17.712Z,0.33
2023-01-27T15:56:46.835Z,0.31
2023-01-27T15:59:22.218Z,0.28
2023-01-27T16:01:49.321Z,0.22
2023-01-27T16:04:18.158Z,0.18
2023-01-27T16:06:46.974Z,0.20
2023-01-27T16:09:16.840Z,0.19
2023-01-27T16:11:43.310Z,0.18
2023-01-27T16:14:12.786Z,0.19
2023-01-27T16:16:39.698Z,0.24
2023-01-27T16:19:11.992Z,0.23
2023-01-27T16:21:44.417Z,0.23
2023-01-27T16:24:20.123Z,0.21
2023-01-27T16:26:49.447Z,0.23
2023-01-27T16:29:18.650Z,0.19
2023-01-27T16:31:49.861Z,0.20
2023-01-27T16:34:23.203Z,0.19
2023-01-27T16:37:04.526Z,0.22
2023-01-27T16:39:34.876Z,0.18
2023-01-27T16:42:01.326Z,0.22
2023-01-27T16:44:35.406Z,0.23
2023-01-27T16:47:16.460Z,0.18
2023-01-27T16:49:43.709Z,0.17
2023-01-27T16:52:16.953Z,0.16
2023-01-27T16:54:44.449Z,0.17
2023-01-27T16:57:29.408Z,0.18
2023-01-27T16:59:56.904Z,0.18
2023-01-27T17:02:25.342Z,0.21
2023-01-27T17:04:53.896Z,0.20
2023-01-27T17:07:20.364Z,0.23
2023-01-27T17:09:50.437Z,0.20
2023-01-27T17:12:25.878Z,0.19
2023-01-27T17:14:52.949Z,0.17
2023-01-27T17:17:20.864Z,0.15
2023-01-27T17:19:51.795Z,0.09
2023-01-27T17:22:38.487Z,0.08
2023-01-27T17:25:09.287Z,0.12
2023-01-27T17:27:38.365Z,0.08
2023-01-27T17:30:10.450Z,0.08
2023-01-27T17:32:38.888Z,0.08
2023-01-27T17:35:28.866Z,0.06
2023-01-27T17:38:14.900Z,0.05
2023-01-27T17:40:43.243Z,0.04
2023-01-27T17:43:25.096Z,0.04
2023-01-27T17:46:05.783Z,0.07
2023-01-27T17:48:32.575Z,0.09
2023-01-27T17:50:59.049Z,0.09
2023-01-27T17:53:25.713Z,0.09
2023-01-27T17:55:52.315Z,0.12
2023-01-27T17:58:22.760Z,0.16
2023-01-27T18:00:49.099Z,0.17
2023-01-27T18:03:30.334Z,0.17
2023-01-27T18:05:56.980Z,0.14
2023-01-27T18:08:26.204Z,0.12
2023-01-27T18:10:52.856Z,0.14
2023-01-27T18:13:19.136Z,0.16
2023-01-27T18:15:58.307Z,0.14
2023-01-27T18:18:25.853Z,0.18
2023-01-27T18:21:01.347Z,0.18
2023-01-27T18:23:30.148Z,0.15
2023-01-27T18:26:02.647Z,0.16
2023-01-27T18:28:32.269Z,0.14
2023-01-27T18:30:58.629Z,0.12
2023-01-27T18:33:25.072Z,0.04
2023-01-27T18:35:58.305Z,-0.02
2023-01-27T18:38:25.764Z,-0.06
2023-01-27T18:40:52.147Z,-0.07
2023-01-27T18:43:18.587Z,-0.06
2023-01-27T18:45:45.153Z,-0.01
2023-01-27T18:48:15.882Z,0.01
2023-01-27T18:50:45.920Z,0.02
2023-01-27T18:53:16.610Z,-0.04
2023-01-27T18:55:43.336Z,-0.10
2023-01-27T18:58:12.716Z,-0.14
2023-01-27T19:00:42.184Z,-0.20
2023-01-27T19:03:12.471Z,-0.30
2023-01-27T19:05:38.830Z,-0.32
2023-01-27T19:08:05.358Z,-0.35
2023-01-27T19:10:33.520Z,-0.37
2023-01-27T19:13:00.715Z,-0.41
2023-01-27T19:15:28.255Z,-0.42
2023-01-27T19:17:55.604Z,-0.48
2023-01-27T19:20:23.587Z,-0.55
2023-01-27T19:22:51.122Z,-0.67
2023-01-27T19:25:17.535Z,-0.77
2023-01-27T19:27:49.756Z,-0.85
2023-01-27T19:30:16.310Z,-0.91
2023-01-27T19:32:42.623Z,-0.89
2023-01-27T19:35:10.382Z,-0.89
2023-01-27T19:37:36.778Z,-0.89
2023-01-27T19:40:03.158Z,-0.89
2023-01-27T19:42:29.633Z,-0.89
2023-01-27T19:44:57.387Z,-0.89
2023-01-27T19:47:23.714Z,-0.96
2023-01-27T19:49:50.017Z,-0.99
2023-01-27T19:52:16.318Z,-1.00
2023-01-27T19:54:42.630Z,-0.96
2023-01-27T19:57:15.292Z,-0.91
2023-01-27T19:59:41.602Z,-0.93
2023-01-27T20:02:09.938Z,-0.98
2023-01-27T20:04:36.354Z,-1.05
2023-01-27T20:07:02.709Z,-1.05
2023-01-27T20:09:29.029Z,-1.01
2023-01-27T20:11:55.326Z,-1.05
2023-01-27T20:14:25.802Z,-1.08
2023-01-27T20:16:52.456Z,-1.08
2023-01-27T20:19:18.780Z,-1.05
2023-01-27T20:21:45.807Z,-1.02
2023-01-27T20:24:16.367Z,-1.03
2023-01-27T20:26:42.764Z,-0.99
2023-01-27T20:29:09.079Z,-0.98
2023-01-27T20:31:37.830Z,-0.95
2023-01-27T20:34:04.292Z,-0.96
2023-01-27T20:36:30.620Z,-0.88
2023-01-27T20:38:56.935Z,-0.86
2023-01-27T20:41:24.150Z,-0.91
2023-01-27T20:43:57.154Z,-0.92
2023-01-27T20:46:24.027Z,-0.93
2023-01-27T20:48:50.349Z,-0.94
2023-01-27T20:51:16.844Z,-0.91
2023-01-27T20:53:47.188Z,-0.85
2023-01-27T20:56:17.119Z,-0.85
2023-01-27T20:58:44.023Z,-0.85
2023-01-27T21:01:14.637Z,-0.85
2023-01-27T21:03:41.407Z,-0.81
2023-01-27T21:06:08.882Z,-0.76
2023-01-27T21:08:35.319Z,-0.71
2023-01-27T21:11:03.140Z,-0.67
2023-01-27T21:13:29.950Z,-0.60
2023-01-27T21:15:59.115Z,-0.67
2023-01-27T21:18:26.237Z,-0.77
2023-01-27T21:20:56.699Z,-0.79
2023-01-27T21:23:24.056Z,-0.82
2023-01-27T21:25:51.098Z,-0.84
2023-01-27T21:28:17.490Z,-0.85
2023-01-27T21:30:44.415Z,-0.85
2023-01-27T21:33:10.855Z,-0.86
2023-01-27T21:35:37.168Z,-0.87
2023-01-27T21:38:03.474Z,-0.88
2023-01-27T21:40:29.808Z,-0.91
2023-01-27T21:43:14.907Z,-0.89
2023-01-27T21:45:41.261Z,-0.88
2023-01-27T21:48:07.620Z,-0.87
2023-01-27T21:50:34.120Z,-0.93
2023-01-27T21:53:00.549Z,-0.97
2023-01-27T21:55:27.744Z,-0.98
2023-01-27T21:57:55.158Z,-1.00
2023-01-27T22:00:23.137Z,-0.99
2023-01-27T22:02:53.732Z,-0.98
2023-01-27T22:05:20.128Z,-0.96
2023-01-27T22:07:48.281Z,-0.96
2023-01-27T22:10:16.657Z,-0.94
2023-01-27T22:12:43.470Z,-0.92
2023-01-27T22:15:10.799Z,-0.85
2023-01-27T22:17:37.116Z,-0.84
2023-01-27T22:20:03.822Z,-0.89
2023-01-27T22:22:30.213Z,-0.93
2023-01-27T22:24:56.528Z,-0.96
2023-01-27T22:27:22.915Z,-0.98
2023-01-27T22:29:49.334Z,-0.99
2023-01-27T22:32:15.661Z,-0.99
2023-01-27T22:34:44.326Z,-0.99
2023-01-27T22:37:10.649Z,-0.98
2023-01-27T22:39:38.170Z,-0.99
2023-01-27T22:42:04.495Z,-0.98
2023-01-27T22:44:30.810Z,-0.96
2023-01-27T22:46:57.113Z,-0.97
2023-01-27T22:49:23.482Z,-0.98
2023-01-27T22:51:49.819Z,-0.98
2023-01-27T22:54:16.125Z,-0.96
2023-01-27T22:56:43.162Z,-0.98
2023-01-27T22:59:11.094Z,-0.98
2023-01-27T23:01:37.428Z,-1.00
2023-01-27T23:04:03.828Z,-1.02
2023-01-27T23:06:30.171Z,-1.06
2023-01-27T23:08:56.508Z,-1.05
2023-01-27T23:11:22.867Z,-1.00
2023-01-27T23:13:49.201Z,-1.01
2023-01-27T23:16:15.624Z,-1.03
2023-01-27T23:18:41.969Z,-1.03
2023-01-27T23:21:08.601Z,-1.04
2023-01-27T23:23:35.473Z,-1.01
2023-01-27T23:26:01.799Z,-1.02
2023-01-27T23:28:28.180Z,-1.03
2023-01-27T23:30:54.647Z,-1.02
2023-01-27T23:33:21.349Z,-1.00
2023-01-27T23:35:48.280Z,-0.97
2023-01-27T23:38:31.381Z,-0.95
2023-01-27T23:41:05.305Z,-0.92
2023-01-27T23:43:31.619Z,-0.89
2023-01-27T23:45:58.493Z,-0.93
2023-01-27T23:48:25.282Z,-0.93
2023-01-27T23:50:52.039Z,-0.96
2023-01-27T23:53:18.430Z,-0.97
2023-01-27T23:55:44.809Z,-0.98
2023-01-27T23:58:11.109Z,-0.97
